Аэропорт: Уйташ. Махачкала

ICAO: URML

METAR:
2018/07/16 20:00
URML 162000Z 26003MPS 9999 NSC 24/16 Q1005 R32/01//70 NOSIG RMK QFE753/1004
METAR:
2014/03/18 00:00
TAF URML 182241Z 1900/1909 32015G20MPS 5000 BR SCT030CB BKN100 530005 
      TEMPO 1900/1906 32023G28MPS 2000 SHRA SQ SCT007 SCT030CB BKN100